Currently 61°F in San Diego (City Heights), California, USA
61°F
62°F / 55°F
5 mph SW
0.00"
Thursday, March 23, 2017 11:20 AM PDT

San Diego (City Heights), California Weather Summary
Last 36 Hours

Temperature Winds Hourly Humidity Dewpoint
Time Report Norm Report Norm Max Gusts Precip. Rpt. Norm Rpt. Norm Pressure
1Thu 11:20 AM  61.4°F  66°F  5 mph SW  3 mph  9 mph  0.00"  65%  60%  49°F  52°F  N/A
Thu 11:00 AM  61.6°F  66°F  4 mph W  2 mph  11 mph  0.00"  66%  61%  50°F  52°F  N/A
2Thu 10:56 AM  61.8°F  66°F  6 mph SW  3 mph  11 mph  ----  67%  62%  50°F  52°F  N/A
Thu 10:00 AM  60.2°F  63°F  4 mph SW  2 mph  10 mph  0.00"  72%  68%  51°F  52°F  N/A
Thu 09:00 AM  59.7°F  60°F  3 mph SW  2 mph  10 mph  0.00"  73%  75%  51°F  52°F  N/A
Thu 08:00 AM  55.9°F  57°F  1 mph SW  1 mph  7 mph  0.00"  84%  81%  51°F  51°F  N/A
Thu 07:00 AM  54.5°F  56°F  calm  1 mph  8 mph  0.00"  84%  83%  50°F  51°F  N/A
3Thu 06:54 AM  54.5°F  56°F  2 mph SE  1 mph  4 mph  ----  84%  83%  50°F  51°F  N/A
Thu 06:00 AM  55.7°F  56°F  4 mph S  1 mph  11 mph  0.00"  83%  83%  50°F  51°F  N/A
Thu 05:00 AM  55.8°F  56°F  4 mph S  1 mph  10 mph  0.00"  83%  84%  50°F  51°F  N/A
Thu 04:00 AM  55.8°F  56°F  3 mph SW  1 mph  14 mph  0.00"  81%  84%  50°F  51°F  N/A
Thu 03:00 AM  56.1°F  56°F  5 mph SW  1 mph  13 mph  0.00"  80%  84%  50°F  51°F  N/A
Thu 02:00 AM  56.4°F  57°F  5 mph W  1 mph  13 mph  0.00"  81%  83%  50°F  52°F  N/A
Thu 01:00 AM  57.1°F  57°F  7 mph SW  1 mph  12 mph  0.00"  81%  83%  51°F  52°F  N/A
Thu 12:00 AM  57.8°F  57°F  2 mph SW  1 mph  11 mph  0.00"  83%  83%  53°F  52°F  N/A
Wed 11:00 PM  58.1°F  58°F  4 mph SW  calm  10 mph  0.01"  86%  82%  54°F  52°F  N/A
Wed 10:00 PM  58.2°F  58°F  3 mph SW  calm  8 mph  0.00"  89%  81%  55°F  52°F  N/A
Wed 09:00 PM  58.9°F  59°F  calm  1 mph  10 mph  0.07"  89%  79%  56°F  52°F  N/A
Wed 08:00 PM  59.6°F  60°F  6 mph SW  1 mph  9 mph  0.00"  83%  76%  54°F  52°F  N/A
Wed 07:00 PM  59.9°F  62°F  5 mph SW  2 mph  12 mph  0.00"  80%  72%  54°F  52°F  N/A
Wed 06:00 PM  61.3°F  65°F  3 mph SW  3 mph  13 mph  0.00"  76%  66%  53°F  52°F  N/A
Wed 05:00 PM  62.5°F  67°F  5 mph S  3 mph  13 mph  0.00"  76%  61%  55°F  52°F  N/A
Wed 04:00 PM  66.1°F  68°F  6 mph S  4 mph  13 mph  0.00"  68%  57%  55°F  52°F  N/A
Wed 03:00 PM  67.2°F  69°F  4 mph S  4 mph  10 mph  0.00"  63%  56%  54°F  52°F  N/A
Wed 02:00 PM  63.2°F  69°F  2 mph W  4 mph  12 mph  0.00"  72%  56%  54°F  52°F  N/A
Wed 01:00 PM  63.7°F  69°F  6 mph SW  4 mph  13 mph  0.00"  71%  57%  54°F  52°F  N/A
Wed 12:00 PM  62.4°F  68°F  7 mph W  3 mph  10 mph  0.00"  82%  59%  57°F  52°F  N/A
Wed 11:00 AM  61.7°F  66°F  5 mph W  2 mph  10 mph  0.00"  92%  62%  59°F  52°F  N/A
Wed 10:00 AM  61.3°F  63°F  calm  2 mph  5 mph  0.00"  96%  68%  60°F  52°F  N/A
Wed 09:00 AM  60.5°F  60°F  calm  2 mph  9 mph  0.03"  96%  75%  59°F  52°F  N/A
Wed 08:00 AM  60.4°F  57°F  3 mph SE  1 mph  11 mph  0.03"  96%  80%  59°F  51°F  N/A
Wed 07:00 AM  60.3°F  56°F  calm  1 mph  6 mph  0.01"  95%  82%  59°F  50°F  N/A
Wed 06:00 AM  60.0°F  56°F  1 mph SE  1 mph  4 mph  0.01"  95%  83%  59°F  51°F  N/A
Wed 05:00 AM  59.8°F  56°F  calm  1 mph  2 mph  0.01"  95%  82%  58°F  51°F  N/A
Wed 04:00 AM  59.7°F  56°F  calm  1 mph  4 mph  0.00"  94%  82%  58°F  51°F  N/A
Wed 03:00 AM  59.6°F  57°F  calm  1 mph  none  0.00"  92%  83%  57°F  51°F  N/A
Wed 02:00 AM  60.3°F  57°F  calm  1 mph  9 mph  0.00"  89%  82%  57°F  51°F  N/A
Wed 01:00 AM  62.2°F  57°F  3 mph S  1 mph  8 mph  0.00"  81%  81%  56°F  52°F  N/A
Wed 12:00 AM  62.6°F  58°F  2 mph S  1 mph  8 mph  0.00"  81%  82%  56°F  52°F  N/A

  1. Current weather data. No green row appears if the current weather data is also the high or low for the current day.
  2. High temperature for the current day.
  3. Low temperature for the current day.

The San Diego (City Height), California weather pages are a service of WeatherCurrents. City Heights is a San Diego community, located east of Balboa Park, near Interstate 15
Copyright ©Thu Mar 23 11:20:51 PDT 2017  WeatherCurrents. All rights reserved. - Submit questions and comments - Privacy Policy

This page automatically refreshes every 10 minutes.